Time;durP1;ratioP1;P1;durP2;ratioP2;P2;SDS_P1;SDS_P2;PMS_P1;PMS_P2;Temp;Humidity;BMP_temperature;BMP_pressure;BME280_temperature;BME280_humidity;BME280_pressure;Samples;Min_cycle;Max_cycle;Signal;HPM_P1;HPM_P2
2022/12/14 00:00:58;;;;;;;85.03;37.15;;;-4.60;1.00;;;;;;5101001;28;20176;-76
2022/12/14 00:03:24;;;;;;;90.57;36.30;;;-4.60;1.00;;;;;;5067660;28;20492;-78
2022/12/14 00:05:50;;;;;;;93.88;37.53;;;-4.60;1.00;;;;;;5085243;28;20458;-76
2022/12/14 00:08:16;;;;;;;88.10;37.38;;;-4.50;1.00;;;;;;5090832;28;20044;-75
2022/12/14 00:10:43;;;;;;;89.25;35.50;;;-4.60;1.00;;;;;;5076224;28;20048;-77
2022/12/14 00:13:13;;;;;;;89.10;36.83;;;-4.50;1.00;;;;;;5092044;28;20050;-76
2022/12/14 00:15:39;;;;;;;86.63;36.42;;;-4.50;1.00;;;;;;5100705;28;20064;-76
2022/12/14 00:18:05;;;;;;;86.47;36.47;;;-4.60;1.00;;;;;;5109567;28;20122;-76
2022/12/14 00:20:32;;;;;;;85.15;34.88;;;-4.60;1.00;;;;;;5088819;28;20064;-76
2022/12/14 00:22:58;;;;;;;88.05;35.92;;;-4.60;1.00;;;;;;5089134;28;20047;-76
2022/12/14 00:25:24;;;;;;;80.03;34.38;;;-4.60;1.00;;;;;;5107866;28;20107;-76
2022/12/14 00:27:50;;;;;;;82.60;33.10;;;-4.60;1.00;;;;;;5104927;27;20487;-76
2022/12/14 00:30:19;;;;;;;79.82;34.85;;;-4.60;1.00;;;;;;5104323;28;20047;-75
2022/12/14 00:32:46;;;;;;;76.18;32.42;;;-4.60;1.00;;;;;;5125491;27;20044;-75
2022/12/14 00:35:15;;;;;;;77.93;34.15;;;-4.70;1.00;;;;;;5092907;28;20051;-77
2022/12/14 00:37:41;;;;;;;81.07;34.05;;;-4.50;1.00;;;;;;5102341;28;20052;-75
2022/12/14 00:40:08;;;;;;;82.97;34.00;;;-4.70;1.00;;;;;;5083873;28;20062;-76
2022/12/14 00:42:34;;;;;;;81.68;33.08;;;-4.70;1.00;;;;;;5090937;28;20036;-76
2022/12/14 00:45:01;;;;;;;78.55;33.17;;;-4.70;1.00;;;;;;5110338;28;20039;-76
2022/12/14 00:47:26;;;;;;;74.00;32.33;;;-4.70;1.00;;;;;;5089722;28;20071;-77
2022/12/14 00:49:52;;;;;;;73.35;33.30;;;-4.70;1.00;;;;;;5091461;28;20685;-77
2022/12/14 00:52:18;;;;;;;77.15;32.30;;;-4.70;1.00;;;;;;5091234;28;20040;-76
2022/12/14 00:54:44;;;;;;;71.25;30.98;;;-4.80;1.00;;;;;;5092044;27;20507;-75
2022/12/14 00:57:10;;;;;;;84.20;33.28;;;-4.80;1.00;;;;;;5093309;28;20408;-79
2022/12/14 00:59:35;;;;;;;71.82;31.05;;;-4.80;1.00;;;;;;5095517;27;20110;-76
2022/12/14 01:02:01;;;;;;;77.95;33.15;;;-4.90;1.00;;;;;;5076515;27;20048;-75
2022/12/14 01:04:27;;;;;;;77.88;32.42;;;-4.90;1.00;;;;;;5096587;27;20192;-75
2022/12/14 01:06:53;;;;;;;74.45;30.98;;;-5.00;1.00;;;;;;5112160;27;20057;-77
2022/12/14 01:09:21;;;;;;;74.47;30.42;;;-5.00;1.00;;;;;;5096180;27;20043;-75
2022/12/14 01:11:47;;;;;;;73.13;30.67;;;-5.10;1.00;;;;;;5109809;27;20511;-76
2022/12/14 01:14:15;;;;;;;72.63;29.08;;;-5.10;1.00;;;;;;5089105;27;20054;-75
2022/12/14 01:16:41;;;;;;;72.22;30.15;;;-5.10;1.00;;;;;;5091754;27;20132;-75
2022/12/14 01:19:07;;;;;;;71.18;28.77;;;-5.10;1.00;;;;;;5093430;27;20142;-77
2022/12/14 01:21:33;;;;;;;66.68;29.20;;;-5.20;1.00;;;;;;5079232;27;20046;-75
2022/12/14 01:24:01;;;;;;;68.43;29.67;;;-5.20;1.00;;;;;;5110772;27;20054;-75
2022/12/14 01:26:29;;;;;;;78.55;30.00;;;-5.30;1.00;;;;;;5095935;27;20642;-77
2022/12/14 01:28:57;;;;;;;68.55;28.52;;;-5.40;1.00;;;;;;5116386;27;20047;-75
2022/12/14 01:31:32;;;;;;;72.35;31.02;;;-5.40;1.00;;;;;;5112656;27;20051;-77
2022/12/14 01:33:58;;;;;;;74.80;30.92;;;-5.40;1.00;;;;;;5095289;27;20039;-76
2022/12/14 01:36:30;;;;;;;71.25;28.40;;;-5.50;1.00;;;;;;5113498;27;20051;-75
2022/12/14 01:38:58;;;;;;;69.97;28.05;;;-5.50;1.00;;;;;;5111276;27;20043;-75
2022/12/14 01:41:28;;;;;;;75.25;28.70;;;-5.60;1.00;;;;;;5096273;27;20039;-75
2022/12/14 01:44:21;;;;;;;75.57;27.73;;;-5.70;1.00;;;;;;5128836;27;20046;-76
2022/12/14 01:46:57;;;;;;;72.93;30.50;;;-5.80;1.00;;;;;;5108729;27;20070;-77
2022/12/14 01:49:50;;;;;;;66.60;28.65;;;-5.80;1.00;;;;;;5121051;27;20052;-76
2022/12/14 01:52:20;;;;;;;72.00;30.02;;;-5.80;1.00;;;;;;5112279;27;20061;-76
2022/12/14 01:54:52;;;;;;;63.15;28.55;;;-5.80;1.00;;;;;;5100828;27;20043;-76
2022/12/14 01:57:24;;;;;;;68.50;28.58;;;-5.80;1.00;;;;;;5115843;27;20051;-76
2022/12/14 01:59:50;;;;;;;66.75;28.20;;;-5.90;1.00;;;;;;5110319;27;20055;-75
2022/12/14 02:02:19;;;;;;;70.32;29.15;;;-5.90;1.00;;;;;;5095799;27;20159;-74
2022/12/14 02:04:56;;;;;;;74.60;29.85;;;-6.00;1.00;;;;;;5086126;28;20056;-81
2022/12/14 02:07:24;;;;;;;69.75;28.13;;;-6.00;1.00;;;;;;5112033;27;20066;-76
2022/12/14 02:09:51;;;;;;;68.28;29.30;;;-6.10;1.00;;;;;;5109013;27;20099;-75
2022/12/14 02:12:27;;;;;;;71.88;26.92;;;-6.20;1.00;;;;;;5098581;27;20043;-76
2022/12/14 02:14:54;;;;;;;63.92;27.08;;;-6.30;1.00;;;;;;5122002;27;20051;-77
2022/12/14 02:17:19;;;;;;;65.38;26.80;;;-6.30;1.00;;;;;;5112355;27;20047;-75
2022/12/14 02:19:48;;;;;;;59.10;26.48;;;-6.40;99.90;;;;;;5080512;27;20039;-80
2022/12/14 02:22:38;;;;;;;64.35;26.73;;;-6.40;99.90;;;;;;5088398;27;20143;-76
2022/12/14 02:25:34;;;;;;;67.72;28.73;;;-6.50;99.90;;;;;;5096087;27;20046;-76
2022/12/14 02:28:19;;;;;;;70.05;28.58;;;-6.50;99.90;;;;;;5112311;27;20051;-75
2022/12/14 02:30:59;;;;;;;68.07;26.88;;;-6.50;99.90;;;;;;5108141;27;20050;-75
2022/12/14 02:33:40;;;;;;;67.47;27.60;;;-6.50;99.90;;;;;;5111029;27;20043;-78
2022/12/14 02:36:14;;;;;;;69.82;27.48;;;-6.60;99.90;;;;;;5138671;27;20118;-75
2022/12/14 02:38:52;;;;;;;71.65;26.70;;;-6.60;99.90;;;;;;5111229;28;20055;-75
2022/12/14 02:41:43;;;;;;;70.90;27.58;;;-6.60;99.90;;;;;;5111418;28;20065;-76
2022/12/14 02:44:24;;;;;;;71.55;27.20;;;-6.60;99.90;;;;;;5109941;27;20133;-75
2022/12/14 02:47:03;;;;;;;71.75;25.80;;;-6.70;99.90;;;;;;5109862;28;20097;-80
2022/12/14 02:49:59;;;;;;;64.00;26.67;;;-6.80;99.90;;;;;;5111314;28;20043;-77
2022/12/14 02:53:01;;;;;;;67.40;25.97;;;-6.80;99.90;;;;;;5098142;28;20058;-76
2022/12/14 02:55:32;;;;;;;65.35;27.33;;;-6.90;99.90;;;;;;5109140;27;20107;-77
2022/12/14 02:58:04;;;;;;;65.53;25.73;;;-7.00;99.90;;;;;;5110617;28;20471;-76
2022/12/14 03:00:33;;;;;;;64.65;27.33;;;-7.00;99.90;;;;;;5112120;28;20038;-76
2022/12/14 03:03:00;;;;;;;62.67;25.15;;;-7.10;99.90;;;;;;5110190;28;20050;-76
2022/12/14 03:05:26;;;;;;;59.47;24.25;;;-7.10;99.90;;;;;;5084048;27;20516;-76
2022/12/14 03:07:53;;;;;;;59.10;24.80;;;-7.20;99.90;;;;;;5084986;28;20140;-79
2022/12/14 03:10:33;;;;;;;68.82;24.38;;;-7.20;99.90;;;;;;5113563;28;20088;-75
2022/12/14 03:13:18;;;;;;;60.50;24.33;;;-7.20;99.90;;;;;;5092910;28;20043;-76
2022/12/14 03:15:50;;;;;;;57.92;23.85;;;-7.20;99.90;;;;;;5086699;28;20397;-76
2022/12/14 03:18:20;;;;;;;54.30;23.42;;;-7.20;99.90;;;;;;5113768;28;20111;-75
2022/12/14 03:20:50;;;;;;;66.45;24.85;;;-7.30;99.90;;;;;;5105650;28;20097;-75
2022/12/14 03:23:21;;;;;;;63.00;25.40;;;-7.30;99.90;;;;;;5122729;28;20337;-75
2022/12/14 03:25:52;;;;;;;62.88;23.25;;;-7.30;99.90;;;;;;5094108;28;20055;-76
2022/12/14 03:28:44;;;;;;;60.25;24.17;;;-7.40;99.90;;;;;;5091361;28;20400;-77
2022/12/14 03:31:24;;;;;;;59.60;23.50;;;-7.40;99.90;;;;;;5108991;27;20082;-75
2022/12/14 03:33:53;;;;;;;58.08;22.70;;;-7.50;99.90;;;;;;5114192;27;20404;-75
2022/12/14 03:36:41;;;;;;;58.60;22.63;;;-7.40;99.90;;;;;;5114066;27;20039;-76
2022/12/14 03:39:11;;;;;;;61.95;24.08;;;-7.40;99.90;;;;;;5117106;27;20399;-76
2022/12/14 03:41:47;;;;;;;62.28;23.90;;;-7.40;99.90;;;;;;5117829;27;20086;-77
2022/12/14 03:44:18;;;;;;;60.28;23.83;;;-7.30;99.90;;;;;;5119112;27;20512;-77
2022/12/14 03:47:02;;;;;;;68.90;25.65;;;-7.30;99.90;;;;;;5113853;27;20134;-76
2022/12/14 03:49:57;;;;;;;57.90;23.58;;;-7.30;99.90;;;;;;5097734;27;20501;-76
2022/12/14 03:52:35;;;;;;;60.97;23.38;;;-7.30;99.90;;;;;;5054787;27;20051;-76
2022/12/14 03:55:03;;;;;;;68.32;25.30;;;-7.30;99.90;;;;;;5114145;27;20085;-81
2022/12/14 03:58:02;;;;;;;67.00;23.90;;;-7.20;99.90;;;;;;5108735;27;20039;-76
2022/12/14 04:00:35;;;;;;;57.47;22.60;;;-7.30;99.90;;;;;;5110476;27;20100;-75
2022/12/14 04:03:06;;;;;;;55.97;22.00;;;-7.30;99.90;;;;;;5112863;27;20035;-81
2022/12/14 04:06:06;;;;;;;64.13;23.75;;;-7.40;99.90;;;;;;5096526;27;20051;-76
2022/12/14 04:09:02;;;;;;;55.13;22.73;;;-7.40;99.90;;;;;;5030488;27;20138;-75
2022/12/14 04:20:15;;;;;;;56.78;22.70;;;-7.40;99.90;;;;;;5111163;27;20122;-75
2022/12/14 04:22:48;;;;;;;56.20;22.25;;;-7.50;99.90;;;;;;5095679;27;20378;-75
2022/12/14 04:31:22;;;;;;;53.83;21.90;;;-7.70;99.90;;;;;;5113462;27;20062;-75
2022/12/14 04:33:56;;;;;;;54.78;22.73;;;-7.80;99.90;;;;;;5111889;27;20047;-75
2022/12/14 04:36:22;;;;;;;57.97;22.75;;;-7.80;99.90;;;;;;5114664;27;20501;-75
2022/12/14 04:38:53;;;;;;;55.40;21.00;;;-7.90;99.90;;;;;;5091488;27;20074;-76
2022/12/14 04:41:23;;;;;;;54.33;21.38;;;-7.90;99.90;;;;;;5101389;27;20043;-79
2022/12/14 04:43:52;;;;;;;62.83;21.58;;;-8.00;99.90;;;;;;5107565;27;20502;-75
2022/12/14 04:46:25;;;;;;;57.30;21.90;;;-8.00;99.90;;;;;;5096450;27;20054;-75
2022/12/14 04:49:01;;;;;;;56.95;21.48;;;-8.00;99.90;;;;;;5098361;27;20047;-75
2022/12/14 04:51:48;;;;;;;53.60;21.38;;;-8.10;99.90;;;;;;5095565;27;20104;-75
2022/12/14 04:54:21;;;;;;;56.88;22.70;;;-8.10;99.90;;;;;;5108139;28;20075;-75
2022/12/14 04:57:00;;;;;;;54.55;22.52;;;-8.10;99.90;;;;;;5091600;28;20390;-76
2022/12/14 04:59:26;;;;;;;59.60;23.73;;;-8.10;99.90;;;;;;5109203;27;20074;-75
2022/12/14 05:02:18;;;;;;;54.72;22.42;;;-8.10;99.90;;;;;;5095682;27;20070;-77
2022/12/14 05:04:59;;;;;;;54.72;22.38;;;-8.10;99.90;;;;;;5095720;27;20050;-75
2022/12/14 05:08:01;;;;;;;60.63;24.13;;;-8.10;99.90;;;;;;5112250;27;20449;-75
2022/12/14 05:10:47;;;;;;;60.60;23.13;;;-8.10;99.90;;;;;;5098460;27;20042;-76
2022/12/14 05:13:43;;;;;;;65.68;24.65;;;-8.20;99.90;;;;;;5129271;27;20054;-81
2022/12/14 05:16:10;;;;;;;46.78;18.60;;;-8.10;99.90;;;;;;5095439;27;20039;-75
2022/12/14 05:18:36;;;;;;;61.78;24.38;;;-8.20;99.90;;;;;;5065970;27;20047;-80
2022/12/14 05:21:01;;;;;;;58.80;23.80;;;-8.20;99.90;;;;;;5083533;27;20571;-77
2022/12/14 05:23:27;;;;;;;58.58;23.05;;;-8.20;99.90;;;;;;5095023;27;20046;-77
2022/12/14 05:25:53;;;;;;;55.63;23.58;;;-8.20;99.90;;;;;;5119320;27;20115;-76
2022/12/14 05:28:18;;;;;;;56.40;23.00;;;-8.30;99.90;;;;;;5112216;27;20410;-76
2022/12/14 05:30:44;;;;;;;58.67;23.13;;;-8.30;99.90;;;;;;5083510;28;20405;-76
2022/12/14 05:33:18;;;;;;;61.80;25.27;;;-8.40;99.90;;;;;;5093552;27;20053;-76
2022/12/14 05:35:44;;;;;;;60.38;23.48;;;-8.40;99.90;;;;;;5096061;27;20043;-77
2022/12/14 05:38:10;;;;;;;58.47;23.65;;;-8.40;99.90;;;;;;5112670;27;20092;-76
2022/12/14 05:40:35;;;;;;;65.88;25.25;;;-8.50;99.90;;;;;;5112570;27;20402;-75
2022/12/14 05:43:05;;;;;;;55.40;22.83;;;-8.40;99.90;;;;;;5077924;27;20431;-76
2022/12/14 05:45:31;;;;;;;61.13;23.65;;;-8.40;99.90;;;;;;5074906;28;20047;-76
2022/12/14 05:47:57;;;;;;;57.33;22.08;;;-8.40;99.90;;;;;;5061830;27;20516;-77
2022/12/14 05:50:23;;;;;;;65.70;24.10;;;-8.40;99.90;;;;;;5111970;27;20544;-82
2022/12/14 05:52:51;;;;;;;60.78;23.13;;;-8.40;99.90;;;;;;5112436;27;20492;-76
2022/12/14 05:55:17;;;;;;;71.78;26.98;;;-8.40;99.90;;;;;;5110676;28;20051;-76
2022/12/14 05:57:42;;;;;;;57.97;22.77;;;-8.40;99.90;;;;;;5110538;27;20086;-77
2022/12/14 06:00:10;;;;;;;62.80;24.00;;;-8.50;99.90;;;;;;5095241;27;20078;-76
2022/12/14 06:02:35;;;;;;;60.17;24.48;;;-8.50;99.90;;;;;;5108817;27;20475;-74
2022/12/14 06:05:01;;;;;;;68.00;25.35;;;-8.50;99.90;;;;;;5093552;27;20131;-76
2022/12/14 06:07:27;;;;;;;63.08;25.40;;;-8.50;99.90;;;;;;5110674;27;20049;-78
2022/12/14 06:09:52;;;;;;;60.50;23.85;;;-8.50;99.90;;;;;;5092090;27;21123;-78
2022/12/14 06:12:18;;;;;;;63.08;25.50;;;-8.50;99.90;;;;;;5076715;27;20050;-79
2022/12/14 06:14:44;;;;;;;64.97;26.15;;;-8.50;99.90;;;;;;5099701;27;20091;-77
2022/12/14 06:17:11;;;;;;;65.20;26.65;;;-8.50;99.90;;;;;;5098932;27;20500;-76
2022/12/14 06:19:37;;;;;;;69.18;25.52;;;-8.40;99.90;;;;;;5112116;27;20047;-76
2022/12/14 06:22:02;;;;;;;65.32;25.70;;;-8.40;99.90;;;;;;5091778;27;20051;-78
2022/12/14 06:24:28;;;;;;;56.92;25.38;;;-8.50;99.90;;;;;;5091757;27;20046;-81
2022/12/14 06:26:54;;;;;;;63.30;24.90;;;-8.50;99.90;;;;;;5077450;27;20517;-77
2022/12/14 06:29:20;;;;;;;63.95;26.45;;;-8.50;99.90;;;;;;5102260;28;20039;-77
2022/12/14 06:31:46;;;;;;;66.20;27.35;;;-8.60;99.90;;;;;;5114177;27;20075;-76
2022/12/14 06:34:12;;;;;;;66.75;25.48;;;-8.60;99.90;;;;;;5085467;27;20109;-77
2022/12/14 06:36:40;;;;;;;65.10;25.95;;;-8.60;99.90;;;;;;5110525;28;20161;-77
2022/12/14 06:39:12;;;;;;;67.72;25.40;;;-8.60;99.90;;;;;;5103105;27;20741;-76
2022/12/14 06:41:39;;;;;;;62.22;25.27;;;-8.60;99.90;;;;;;5089253;27;20047;-77
2022/12/14 06:44:07;;;;;;;66.82;25.42;;;-8.60;99.90;;;;;;5095025;28;20039;-76
2022/12/14 06:46:33;;;;;;;69.10;26.67;;;-8.60;99.90;;;;;;5109306;27;20381;-77
2022/12/14 06:48:59;;;;;;;64.50;25.50;;;-8.60;99.90;;;;;;5091616;28;20051;-76
2022/12/14 06:51:24;;;;;;;60.67;24.60;;;-8.70;99.90;;;;;;5100038;27;20091;-77
2022/12/14 06:53:55;;;;;;;65.13;23.73;;;-8.70;99.90;;;;;;5086497;28;20401;-76
2022/12/14 06:56:23;;;;;;;68.03;26.00;;;-8.80;96.20;;;;;;5089999;28;20036;-76
2022/12/14 06:58:49;;;;;;;55.85;23.30;;;-8.80;96.20;;;;;;5110521;28;20062;-76
2022/12/14 07:01:17;;;;;;;70.35;24.98;;;-8.80;96.90;;;;;;5111520;28;20042;-77
2022/12/14 07:03:46;;;;;;;65.97;23.83;;;-8.90;92.20;;;;;;5116942;27;20122;-77
2022/12/14 07:06:12;;;;;;;63.58;25.17;;;-8.90;89.10;;;;;;5089808;28;20058;-75
2022/12/14 07:08:38;;;;;;;60.28;23.70;;;-8.90;83.70;;;;;;5096324;27;20043;-82
2022/12/14 07:11:06;;;;;;;64.35;25.08;;;-8.90;70.80;;;;;;5107849;27;20201;-75
2022/12/14 07:13:32;;;;;;;59.92;24.45;;;-8.90;71.90;;;;;;5110162;27;20097;-81
2022/12/14 07:16:00;;;;;;;62.28;24.60;;;-9.00;66.30;;;;;;5116229;27;20395;-76
2022/12/14 07:18:27;;;;;;;62.47;25.92;;;-9.00;58.50;;;;;;5113588;27;20515;-79
2022/12/14 07:20:56;;;;;;;66.50;26.88;;;-9.00;50.10;;;;;;5112138;27;20044;-78
2022/12/14 07:23:23;;;;;;;70.45;26.10;;;-9.00;46.20;;;;;;5107535;27;20055;-79
2022/12/14 07:25:49;;;;;;;67.68;28.23;;;-9.10;42.80;;;;;;5073204;27;20092;-79
2022/12/14 07:28:15;;;;;;;61.40;26.30;;;-9.10;31.50;;;;;;5077647;27;20047;-75
2022/12/14 07:30:40;;;;;;;68.07;25.38;;;-9.10;38.00;;;;;;5114921;27;20039;-76
2022/12/14 07:33:06;;;;;;;77.53;27.70;;;-9.10;47.10;;;;;;5096189;27;20053;-76
2022/12/14 07:35:32;;;;;;;71.95;30.67;;;-9.10;53.40;;;;;;5098489;27;20047;-80
2022/12/14 07:37:57;;;;;;;81.00;33.15;;;-9.10;55.70;;;;;;5094625;27;20039;-77
2022/12/14 07:40:23;;;;;;;85.22;34.33;;;-9.10;59.80;;;;;;5080788;27;20119;-76
2022/12/14 07:42:49;;;;;;;75.55;30.77;;;-9.00;53.60;;;;;;5114329;27;20118;-76
2022/12/14 07:45:15;;;;;;;83.70;33.40;;;-9.00;42.90;;;;;;5094550;27;20048;-77
2022/12/14 07:47:41;;;;;;;81.45;31.48;;;-9.00;47.90;;;;;;5092383;27;20180;-77
2022/12/14 07:50:07;;;;;;;71.40;27.50;;;-9.00;37.70;;;;;;5078500;27;20050;-79
2022/12/14 07:52:33;;;;;;;65.40;23.75;;;-9.00;50.50;;;;;;5097014;27;20086;-77
2022/12/14 07:54:58;;;;;;;61.13;24.75;;;-8.90;69.50;;;;;;5060021;27;20066;-78
2022/12/14 07:57:24;;;;;;;70.00;25.08;;;-8.90;92.00;;;;;;5114520;27;20051;-77
2022/12/14 07:59:50;;;;;;;66.45;24.52;;;-8.90;98.30;;;;;;5098280;27;20051;-76
2022/12/14 08:02:16;;;;;;;67.75;25.75;;;-8.80;97.30;;;;;;5076297;27;20038;-76
2022/12/14 08:04:41;;;;;;;63.75;23.90;;;-8.80;91.80;;;;;;5070301;27;20047;-79
2022/12/14 08:07:07;;;;;;;68.07;25.25;;;-8.80;94.40;;;;;;5113131;27;20095;-78
2022/12/14 08:09:33;;;;;;;67.95;25.95;;;-8.80;84.20;;;;;;5069715;27;20042;-76
2022/12/14 08:11:58;;;;;;;69.97;25.75;;;-8.80;76.80;;;;;;5095635;27;20476;-79
2022/12/14 08:14:24;;;;;;;66.88;24.20;;;-8.80;73.50;;;;;;5112797;27;20039;-76
2022/12/14 08:16:50;;;;;;;63.15;23.45;;;-8.80;70.30;;;;;;5070247;27;20047;-79
2022/12/14 08:19:17;;;;;;;64.95;24.98;;;-8.90;57.30;;;;;;5095371;27;20528;-76
2022/12/14 08:21:44;;;;;;;74.55;28.05;;;-8.90;86.30;;;;;;5066382;27;20047;-77
2022/12/14 08:24:14;;;;;;;146.00;52.65;;;-8.80;99.90;;;;;;5080165;27;20047;-76
2022/12/14 08:26:39;;;;;;;79.53;28.60;;;-8.70;99.90;;;;;;5094603;27;20101;-82
2022/12/14 08:29:06;;;;;;;71.30;24.10;;;-8.70;99.90;;;;;;5075557;28;20504;-76
2022/12/14 08:31:32;;;;;;;66.88;24.08;;;-8.60;99.90;;;;;;5094548;27;20039;-77
2022/12/14 08:34:00;;;;;;;71.70;24.23;;;-8.60;99.90;;;;;;5096352;27;20039;-78
2022/12/14 08:36:28;;;;;;;72.25;23.50;;;-8.50;99.90;;;;;;5067816;27;20071;-77
2022/12/14 08:38:58;;;;;;;68.07;24.15;;;-8.50;99.90;;;;;;5096194;27;20085;-76
2022/12/14 08:41:25;;;;;;;65.20;24.90;;;-8.50;99.90;;;;;;5094176;27;20051;-80
2022/12/14 08:43:52;;;;;;;89.53;35.28;;;-8.50;99.90;;;;;;5108752;27;20043;-76
2022/12/14 08:46:19;;;;;;;82.72;36.25;;;-8.50;99.90;;;;;;5110077;27;20087;-79
2022/12/14 08:48:45;;;;;;;92.68;39.80;;;-8.20;99.90;;;;;;5103067;27;20488;-82
2022/12/14 08:51:11;;;;;;;81.10;32.40;;;-8.30;99.90;;;;;;5112099;27;20094;-75
2022/12/14 08:53:37;;;;;;;78.03;29.83;;;-8.30;99.90;;;;;;5112819;27;20122;-82
2022/12/14 08:56:09;;;;;;;76.57;29.77;;;-8.20;99.90;;;;;;5077848;27;20112;-77
2022/12/14 08:58:35;;;;;;;71.43;26.45;;;-8.20;99.90;;;;;;5110141;27;20099;-76
2022/12/14 09:01:04;;;;;;;70.05;26.58;;;-8.30;99.90;;;;;;5112066;27;20043;-76
2022/12/14 09:03:30;;;;;;;81.60;27.80;;;-8.20;99.90;;;;;;5111322;27;20134;-76
2022/12/14 09:05:56;;;;;;;67.47;26.23;;;-8.30;99.90;;;;;;5111423;27;20384;-76
2022/12/14 09:08:21;;;;;;;63.45;25.42;;;-8.30;99.90;;;;;;5094255;27;20075;-79
2022/12/14 09:10:49;;;;;;;65.45;26.13;;;-8.20;99.90;;;;;;5095677;27;20210;-83
2022/12/14 09:13:15;;;;;;;66.35;26.13;;;-8.20;99.90;;;;;;5113201;27;20377;-78
2022/12/14 09:15:41;;;;;;;72.13;28.30;;;-8.10;99.90;;;;;;5095788;27;20091;-79
2022/12/14 09:18:06;;;;;;;69.47;27.83;;;-8.10;99.90;;;;;;5094355;27;20195;-77
2022/12/14 09:20:32;;;;;;;72.05;27.05;;;-8.00;99.90;;;;;;5061985;27;20404;-79
2022/12/14 09:22:58;;;;;;;66.25;22.27;;;-7.80;99.90;;;;;;5093400;27;20091;-79
2022/12/14 09:25:24;;;;;;;60.15;21.23;;;-7.60;99.90;;;;;;5095341;27;20039;-79
2022/12/14 09:27:50;;;;;;;65.47;23.27;;;-7.50;99.90;;;;;;5082376;27;20051;-83
2022/12/14 09:30:16;;;;;;;78.55;23.90;;;-7.40;99.90;;;;;;5080791;28;20042;-79
2022/12/14 09:32:45;;;;;;;68.68;24.83;;;-7.30;99.90;;;;;;5093056;27;20051;-79
2022/12/14 09:35:11;;;;;;;64.47;25.52;;;-7.20;99.90;;;;;;5111019;27;20254;-79
2022/12/14 09:37:37;;;;;;;65.20;24.70;;;-7.20;99.90;;;;;;5073154;27;20054;-80
2022/12/14 09:40:04;;;;;;;60.00;23.27;;;-7.20;99.90;;;;;;5111127;27;20071;-78
2022/12/14 09:42:54;;;;;;;56.00;22.30;;;-7.10;99.90;;;;;;5093193;27;20497;-78
2022/12/14 09:45:32;;;;;;;62.80;23.42;;;-6.90;99.90;;;;;;5112421;27;20043;-78
2022/12/14 09:48:22;;;;;;;62.78;22.05;;;-6.80;99.90;;;;;;5088976;27;20047;-81
2022/12/14 09:50:50;;;;;;;58.75;21.70;;;-6.70;99.90;;;;;;5111890;27;20055;-79
2022/12/14 09:53:18;;;;;;;61.38;23.58;;;-6.50;99.90;;;;;;5111309;27;20493;-81
2022/12/14 09:55:51;;;;;;;58.53;21.85;;;-6.40;99.90;;;;;;5109959;27;20054;-82
2022/12/14 09:58:26;;;;;;;73.60;31.45;;;-6.40;99.90;;;;;;5089073;27;20062;-80
2022/12/14 10:01:12;;;;;;;57.83;22.40;;;-6.30;99.90;;;;;;5111677;27;20056;-82
2022/12/14 10:04:05;;;;;;;65.20;28.88;;;-6.20;99.90;;;;;;5087258;27;20054;-80
2022/12/14 10:06:35;;;;;;;58.72;22.60;;;-6.10;99.90;;;;;;5089796;27;20103;-81
2022/12/14 10:09:18;;;;;;;63.83;23.08;;;-6.10;99.90;;;;;;5091565;27;20058;-80
2022/12/14 10:12:31;;;;;;;55.63;21.60;;;-5.90;99.90;;;;;;5097555;27;20480;-81
2022/12/14 10:15:16;;;;;;;58.60;22.98;;;-5.80;99.90;;;;;;5105819;27;20057;-80
2022/12/14 10:18:14;;;;;;;55.40;21.25;;;-5.80;99.90;;;;;;5085623;27;20059;-81
2022/12/14 10:21:03;;;;;;;53.10;21.65;;;-5.80;1.00;;;;;;5059679;28;20142;-80
2022/12/14 10:23:30;;;;;;;54.00;22.27;;;-5.70;1.00;;;;;;5106489;27;20039;-81
2022/12/14 10:26:11;;;;;;;48.13;20.10;;;-5.60;1.00;;;;;;5096627;27;20484;-80
2022/12/14 10:28:36;;;;;;;50.28;20.08;;;-5.60;1.00;;;;;;5109869;27;20153;-80
2022/12/14 10:31:08;;;;;;;45.45;20.17;;;-5.60;1.00;;;;;;5096042;27;20150;-81
2022/12/14 10:33:37;;;;;;;48.80;20.90;;;-5.50;1.00;;;;;;5113998;27;20062;-80
2022/12/14 10:36:33;;;;;;;49.78;21.67;;;-5.50;1.00;;;;;;5090788;28;20047;-80
2022/12/14 10:39:05;;;;;;;47.75;19.58;;;-5.30;1.00;;;;;;5110507;27;20111;-84
2022/12/14 10:41:53;;;;;;;45.35;20.35;;;-5.30;1.00;;;;;;5119171;27;20050;-80
2022/12/14 10:44:33;;;;;;;45.17;19.40;;;-5.30;1.00;;;;;;5116922;27;20045;-81
2022/12/14 10:47:18;;;;;;;47.45;20.13;;;-5.20;1.00;;;;;;5125042;27;20047;-80
2022/12/14 10:49:57;;;;;;;41.13;19.27;;;-5.10;1.00;;;;;;5124534;28;20063;-81
2022/12/14 10:52:27;;;;;;;50.05;20.83;;;-5.10;1.00;;;;;;5108051;28;20566;-81
2022/12/14 10:55:00;;;;;;;49.13;19.23;;;-5.00;1.00;;;;;;5109585;27;20412;-85
2022/12/14 10:57:27;;;;;;;46.33;21.55;;;-4.90;1.00;;;;;;5085237;28;20074;-81
2022/12/14 10:59:54;;;;;;;54.30;22.40;;;-4.90;1.00;;;;;;5083269;28;20070;-83
2022/12/14 11:02:20;;;;;;;45.20;20.30;;;-4.90;1.00;;;;;;5103725;28;20119;-83
2022/12/14 11:04:51;;;;;;;51.17;21.27;;;-4.80;1.00;;;;;;5107039;28;20084;-83
2022/12/14 11:07:20;;;;;;;47.80;20.48;;;-4.60;1.00;;;;;;5089855;28;20055;-83
2022/12/14 11:09:46;;;;;;;43.08;18.63;;;-4.60;1.00;;;;;;5108382;28;20043;-82
2022/12/14 11:12:12;;;;;;;45.08;19.70;;;-4.60;1.00;;;;;;5080084;28;20137;-82
2022/12/14 11:14:48;;;;;;;43.42;18.70;;;-4.60;1.00;;;;;;5091380;28;20075;-83
2022/12/14 11:17:40;;;;;;;42.58;18.92;;;-4.40;1.00;;;;;;5090140;28;20062;-83
2022/12/14 11:20:19;;;;;;;39.10;16.70;;;-4.30;1.00;;;;;;5107357;28;20473;-83
2022/12/14 11:22:48;;;;;;;44.13;20.75;;;-4.30;1.00;;;;;;5091151;28;20067;-83
2022/12/14 11:25:40;;;;;;;43.08;19.58;;;-4.30;1.00;;;;;;5090851;28;20108;-83
2022/12/14 11:28:25;;;;;;;39.58;18.58;;;-4.20;1.00;;;;;;5077462;28;20436;-86
2022/12/14 11:30:55;;;;;;;44.95;19.52;;;-4.00;1.00;;;;;;5091290;28;20504;-83
2022/12/14 11:33:24;;;;;;;44.90;18.95;;;-4.00;1.00;;;;;;5090538;28;20088;-83
2022/12/14 11:35:51;;;;;;;42.85;19.75;;;-4.00;1.00;;;;;;5108424;28;20047;-83
2022/12/14 11:38:21;;;;;;;42.72;19.45;;;-3.90;1.00;;;;;;5105588;28;20090;-83
2022/12/14 11:40:47;;;;;;;45.60;19.58;;;-3.80;1.00;;;;;;5098297;28;20108;-81
2022/12/14 11:43:45;;;;;;;41.42;18.45;;;-3.80;1.00;;;;;;5088682;28;20039;-81
2022/12/14 11:46:11;;;;;;;37.42;17.85;;;-3.70;1.00;;;;;;5042140;28;20140;-87
2022/12/14 11:48:47;;;;;;;41.90;17.13;;;-3.70;1.00;;;;;;5084372;28;20056;-82
2022/12/14 11:51:13;;;;;;;37.80;17.27;;;-3.70;1.00;;;;;;5104857;28;20185;-81
2022/12/14 11:53:40;;;;;;;40.47;17.92;;;-3.70;1.00;;;;;;5089771;28;20039;-82
2022/12/14 11:56:13;;;;;;;31.33;14.80;;;-3.70;1.00;;;;;;5059097;28;20043;-83
2022/12/14 11:58:50;;;;;;;34.92;16.15;;;-3.60;1.00;;;;;;5095956;27;22014;-81
2022/12/14 12:01:18;;;;;;;33.65;14.82;;;-3.50;1.00;;;;;;5103183;27;20052;-83
2022/12/14 12:03:48;;;;;;;31.63;14.90;;;-3.40;1.00;;;;;;5096177;27;21870;-82
2022/12/14 12:06:21;;;;;;;33.95;15.43;;;-3.30;1.00;;;;;;5106899;27;20035;-81
2022/12/14 12:08:54;;;;;;;29.30;14.30;;;-3.30;1.00;;;;;;5097924;28;20039;-80
2022/12/14 12:11:25;;;;;;;29.63;14.07;;;-3.30;1.00;;;;;;5090025;28;20473;-80
2022/12/14 12:13:57;;;;;;;28.83;14.32;;;-3.20;1.00;;;;;;5090037;28;20043;-80
2022/12/14 12:16:25;;;;;;;31.33;13.98;;;-3.20;1.00;;;;;;5090888;28;20132;-81
2022/12/14 12:19:00;;;;;;;28.90;13.68;;;-3.30;1.00;;;;;;5111732;28;20073;-79
2022/12/14 12:21:33;;;;;;;25.45;12.85;;;-3.30;1.00;;;;;;5095347;28;20053;-80
2022/12/14 12:24:05;;;;;;;28.60;13.40;;;-3.30;1.00;;;;;;5083191;28;20396;-77
2022/12/14 12:26:38;;;;;;;27.23;14.18;;;-3.20;1.00;;;;;;5096189;28;20090;-82
2022/12/14 12:29:40;;;;;;;27.13;12.68;;;-3.20;1.00;;;;;;5093151;28;20052;-79
2022/12/14 12:32:13;;;;;;;35.60;14.35;;;-3.30;1.00;;;;;;5109371;27;20098;-77
2022/12/14 12:35:02;;;;;;;29.92;14.05;;;-3.40;1.00;;;;;;5107322;28;20047;-79
2022/12/14 12:37:41;;;;;;;29.00;12.20;;;-3.40;1.00;;;;;;5104237;28;20051;-78
2022/12/14 12:40:15;;;;;;;26.55;11.85;;;-3.40;1.00;;;;;;5088173;28;20054;-79
2022/12/14 12:43:14;;;;;;;24.77;12.15;;;-3.40;1.00;;;;;;5106435;28;20043;-78
2022/12/14 12:45:48;;;;;;;22.58;11.93;;;-3.30;1.00;;;;;;5098358;28;20048;-78
2022/12/14 12:48:22;;;;;;;27.10;12.30;;;-3.30;1.00;;;;;;5091739;28;20043;-79
2022/12/14 12:50:55;;;;;;;24.33;12.95;;;-3.40;1.00;;;;;;5083016;28;20105;-81
2022/12/14 12:53:29;;;;;;;29.05;13.25;;;-3.30;1.00;;;;;;5108218;28;20044;-79
2022/12/14 12:56:03;;;;;;;25.10;11.93;;;-3.30;1.00;;;;;;5090713;28;20043;-79
2022/12/14 12:58:33;;;;;;;23.75;11.13;;;-3.30;1.00;;;;;;5096682;28;20058;-79
2022/12/14 13:01:09;;;;;;;24.25;10.07;;;-3.20;1.00;;;;;;5072019;28;20048;-81
2022/12/14 13:03:40;;;;;;;21.60;10.77;;;-3.20;1.00;;;;;;5072240;28;20532;-78
2022/12/14 13:06:22;;;;;;;23.40;11.70;;;-3.20;1.00;;;;;;5068299;28;20393;-78
2022/12/14 13:08:55;;;;;;;23.00;10.23;;;-3.10;1.00;;;;;;5102088;28;20067;-84